Time;durP1;ratioP1;P1;durP2;ratioP2;P2;SDS_P1;SDS_P2;PMS_P1;PMS_P2;Temp;Humidity;BMP_temperature;BMP_pressure;BME280_temperature;BME280_humidity;BME280_pressure;Samples;Min_cycle;Max_cycle;Signal;HPM_P1;HPM_P2
2021/05/15 00:00:59;;;;;;;7.85;4.63;;;10.60;99.20;;;;;;5006282;28;20064;-71
2021/05/15 00:03:25;;;;;;;8.85;4.57;;;10.70;99.30;;;;;;5007019;28;20044;-72
2021/05/15 00:05:50;;;;;;;10.60;5.25;;;10.70;99.20;;;;;;5015251;28;20109;-71
2021/05/15 00:08:16;;;;;;;8.23;4.80;;;10.70;99.20;;;;;;5012257;28;20089;-72
2021/05/15 00:10:42;;;;;;;8.85;4.20;;;10.70;99.20;;;;;;5007748;28;20440;-71
2021/05/15 00:13:08;;;;;;;7.95;4.55;;;10.70;99.30;;;;;;5009481;28;20037;-71
2021/05/15 00:15:33;;;;;;;7.40;4.50;;;10.70;99.30;;;;;;5006540;28;20033;-71
2021/05/15 00:17:59;;;;;;;11.55;5.32;;;10.60;99.50;;;;;;5009643;28;20030;-71
2021/05/15 00:20:25;;;;;;;9.05;5.03;;;10.60;99.60;;;;;;5001704;28;20031;-71
2021/05/15 00:22:51;;;;;;;10.07;5.35;;;10.60;99.50;;;;;;5018683;28;20038;-72
2021/05/15 00:25:18;;;;;;;9.40;4.78;;;10.60;99.70;;;;;;4996937;28;20038;-71
2021/05/15 00:27:44;;;;;;;8.73;5.20;;;10.60;99.70;;;;;;5005053;28;20482;-72
2021/05/15 00:30:12;;;;;;;12.52;5.60;;;10.60;99.70;;;;;;5004858;28;20035;-71
2021/05/15 00:32:38;;;;;;;10.35;5.60;;;10.60;99.70;;;;;;5009294;28;20108;-71
2021/05/15 00:35:05;;;;;;;9.30;5.22;;;10.60;99.90;;;;;;5010508;28;20041;-72
2021/05/15 00:37:31;;;;;;;8.45;5.22;;;10.60;99.80;;;;;;4997344;28;20041;-72
2021/05/15 00:39:57;;;;;;;9.27;5.15;;;10.60;99.90;;;;;;5004997;28;20466;-71
2021/05/15 00:42:22;;;;;;;8.70;4.90;;;10.60;99.90;;;;;;5015901;28;20038;-72
2021/05/15 00:44:48;;;;;;;12.85;5.20;;;10.70;99.90;;;;;;5000330;28;20136;-71
2021/05/15 00:47:16;;;;;;;9.40;5.15;;;10.70;99.90;;;;;;5003927;28;20106;-72
2021/05/15 00:49:43;;;;;;;8.43;4.65;;;10.80;99.90;;;;;;5003702;28;20046;-72
2021/05/15 00:52:10;;;;;;;8.55;4.60;;;10.80;99.90;;;;;;4998218;28;20050;-72
2021/05/15 00:54:37;;;;;;;9.23;4.82;;;10.80;99.90;;;;;;5012876;28;20053;-71
2021/05/15 00:57:04;;;;;;;8.05;4.47;;;10.80;99.90;;;;;;4998592;28;20061;-71
2021/05/15 00:59:31;;;;;;;10.35;5.13;;;10.90;99.90;;;;;;5011300;28;20581;-72
2021/05/15 01:01:57;;;;;;;10.68;5.25;;;10.90;99.90;;;;;;5001980;28;20030;-71
2021/05/15 01:04:22;;;;;;;12.95;7.05;;;10.90;99.90;;;;;;5008304;28;20121;-72
2021/05/15 01:07:06;;;;;;;13.52;7.13;;;10.90;99.90;;;;;;5001032;28;20033;-71
2021/05/15 01:09:32;;;;;;;12.07;6.20;;;10.80;99.90;;;;;;5010418;28;20037;-71
2021/05/15 01:12:01;;;;;;;14.35;7.28;;;10.70;99.90;;;;;;4994313;28;20083;-71
2021/05/15 01:14:27;;;;;;;11.50;7.20;;;10.70;99.90;;;;;;5012182;28;20030;-71
2021/05/15 01:16:53;;;;;;;13.32;6.65;;;10.70;99.90;;;;;;5004594;28;20029;-71
2021/05/15 01:19:18;;;;;;;16.60;6.90;;;10.70;99.90;;;;;;5006522;28;20136;-72
2021/05/15 01:21:44;;;;;;;11.68;7.30;;;10.70;99.90;;;;;;5004461;28;20108;-71
2021/05/15 01:24:10;;;;;;;12.98;7.32;;;10.60;99.90;;;;;;5020890;28;20065;-72
2021/05/15 01:26:36;;;;;;;13.73;7.88;;;10.50;99.90;;;;;;5000682;28;20061;-71
2021/05/15 01:29:06;;;;;;;12.43;7.13;;;10.50;99.90;;;;;;5008117;28;20520;-72
2021/05/15 01:31:33;;;;;;;14.65;7.90;;;10.60;99.90;;;;;;5022863;28;20129;-71
2021/05/15 01:33:59;;;;;;;13.77;7.47;;;10.60;99.90;;;;;;5015854;28;20093;-72
2021/05/15 01:36:28;;;;;;;13.13;7.30;;;10.60;99.90;;;;;;4999120;28;20065;-71
2021/05/15 01:38:54;;;;;;;12.32;6.80;;;10.70;99.90;;;;;;5004705;28;20025;-71
2021/05/15 01:41:20;;;;;;;12.65;6.97;;;10.70;99.90;;;;;;5010045;28;20030;-72
2021/05/15 01:43:47;;;;;;;11.90;6.90;;;10.80;99.90;;;;;;5009256;28;20112;-71
2021/05/15 01:46:13;;;;;;;12.82;6.72;;;10.90;99.90;;;;;;5000845;28;20037;-71
2021/05/15 01:48:40;;;;;;;11.52;6.47;;;10.90;99.90;;;;;;5006648;28;20137;-71
2021/05/15 01:51:11;;;;;;;11.48;6.05;;;10.90;99.90;;;;;;5007271;28;20089;-72
2021/05/15 01:53:49;;;;;;;11.35;6.97;;;11.00;99.90;;;;;;5010448;28;20129;-72
2021/05/15 01:56:17;;;;;;;12.55;6.85;;;11.00;99.90;;;;;;5004412;28;20061;-70
2021/05/15 01:58:44;;;;;;;10.00;6.50;;;11.00;99.90;;;;;;5008779;28;20040;-72
2021/05/15 02:01:10;;;;;;;12.35;6.25;;;11.00;99.90;;;;;;5007330;28;20038;-72
2021/05/15 02:03:39;;;;;;;10.63;6.22;;;11.00;99.90;;;;;;5005003;28;20413;-71
2021/05/15 02:06:05;;;;;;;13.00;7.00;;;11.10;99.90;;;;;;5006204;28;20038;-71
2021/05/15 02:08:31;;;;;;;9.90;6.40;;;11.10;99.90;;;;;;5008204;28;20099;-71
2021/05/15 02:10:58;;;;;;;10.48;6.25;;;11.10;99.90;;;;;;5012125;28;20374;-72
2021/05/15 02:13:26;;;;;;;11.27;6.00;;;11.10;99.90;;;;;;5007660;28;20094;-71
2021/05/15 02:15:53;;;;;;;;;;;11.10;99.90;;;;;;4993203;28;20150;-71
2021/05/15 02:18:19;;;;;;;9.77;5.22;;;11.10;99.90;;;;;;5000113;28;19920;-71
2021/05/15 02:20:44;;;;;;;10.13;5.78;;;11.10;99.90;;;;;;4999757;28;20113;-71
2021/05/15 02:23:11;;;;;;;10.73;6.68;;;11.10;99.90;;;;;;5010069;28;20644;-72
2021/05/15 02:25:38;;;;;;;10.85;6.40;;;11.10;99.90;;;;;;5000355;28;20030;-71
2021/05/15 02:28:04;;;;;;;11.48;6.13;;;11.10;99.90;;;;;;5008464;28;20053;-72
2021/05/15 02:30:31;;;;;;;10.50;6.65;;;11.00;99.90;;;;;;5017763;28;20096;-71
2021/05/15 02:32:57;;;;;;;11.05;7.10;;;11.10;99.90;;;;;;5006524;28;20030;-71
2021/05/15 02:35:23;;;;;;;10.70;6.70;;;11.00;99.90;;;;;;5008455;28;20037;-71
2021/05/15 02:37:50;;;;;;;11.30;7.10;;;11.00;99.90;;;;;;5007079;28;20057;-72
2021/05/15 02:40:17;;;;;;;11.88;6.95;;;11.10;99.90;;;;;;5009718;28;20042;-71
2021/05/15 02:42:43;;;;;;;13.65;7.32;;;11.00;99.90;;;;;;5006376;28;20343;-72
2021/05/15 02:45:11;;;;;;;11.50;6.50;;;11.00;99.90;;;;;;5003297;28;20041;-71
2021/05/15 02:47:37;;;;;;;10.07;6.63;;;11.10;99.90;;;;;;5001833;28;20501;-71
2021/05/15 02:50:04;;;;;;;13.95;7.75;;;11.00;99.90;;;;;;5009493;28;20148;-72
2021/05/15 02:52:30;;;;;;;13.27;7.57;;;11.00;99.90;;;;;;5003090;28;20489;-72
2021/05/15 02:54:56;;;;;;;13.40;7.32;;;11.00;99.90;;;;;;5012568;28;20280;-71
2021/05/15 02:57:22;;;;;;;13.18;7.70;;;11.00;99.90;;;;;;5008261;28;20048;-72
2021/05/15 02:59:48;;;;;;;11.25;6.57;;;11.00;99.90;;;;;;5006106;28;20049;-71
2021/05/15 03:02:14;;;;;;;15.13;6.72;;;11.00;99.90;;;;;;5004819;28;20028;-71
2021/05/15 03:04:39;;;;;;;8.45;5.38;;;10.90;99.90;;;;;;5021244;28;20034;-72
2021/05/15 03:07:05;;;;;;;13.65;6.78;;;10.90;99.90;;;;;;5020629;28;20030;-73
2021/05/15 03:09:31;;;;;;;11.98;6.78;;;10.90;99.90;;;;;;5025496;28;20060;-71
2021/05/15 03:11:57;;;;;;;13.70;7.53;;;10.90;99.90;;;;;;5000769;28;20022;-72
2021/05/15 03:14:22;;;;;;;11.15;6.70;;;10.90;99.90;;;;;;5006311;28;20434;-71
2021/05/15 03:16:48;;;;;;;11.82;6.72;;;10.90;99.90;;;;;;5004785;28;20100;-72
2021/05/15 03:19:14;;;;;;;13.18;6.93;;;10.90;99.90;;;;;;4996370;28;20022;-71
2021/05/15 03:21:39;;;;;;;11.10;6.88;;;10.90;99.90;;;;;;5007439;28;20038;-71
2021/05/15 03:24:06;;;;;;;11.65;6.93;;;10.80;99.90;;;;;;5004489;28;20033;-71
2021/05/15 03:26:32;;;;;;;11.20;7.05;;;10.80;99.90;;;;;;5009503;28;20029;-72
2021/05/15 03:28:57;;;;;;;13.25;7.70;;;10.80;99.90;;;;;;5008218;28;20030;-72
2021/05/15 03:31:23;;;;;;;14.40;7.80;;;10.80;99.90;;;;;;5007137;28;20412;-71
2021/05/15 03:33:49;;;;;;;12.82;7.50;;;10.70;99.90;;;;;;5004544;28;20045;-71
2021/05/15 03:36:15;;;;;;;11.65;6.75;;;10.70;99.90;;;;;;5009170;28;20080;-71
2021/05/15 03:38:40;;;;;;;11.88;7.38;;;10.70;99.90;;;;;;5007359;28;20033;-71
2021/05/15 03:41:06;;;;;;;12.77;7.28;;;10.70;99.90;;;;;;5005341;28;20059;-72
2021/05/15 03:43:32;;;;;;;17.80;7.75;;;10.70;99.90;;;;;;5004416;28;20068;-72
2021/05/15 03:45:58;;;;;;;13.73;7.15;;;10.70;99.90;;;;;;5006096;28;20037;-71
2021/05/15 03:48:24;;;;;;;12.98;7.32;;;10.70;99.90;;;;;;5009495;28;20108;-71
2021/05/15 03:50:51;;;;;;;12.48;7.57;;;10.70;99.90;;;;;;5023512;28;20451;-72
2021/05/15 03:53:18;;;;;;;11.50;7.72;;;10.70;99.90;;;;;;4995358;28;20027;-72
2021/05/15 03:55:44;;;;;;;14.15;7.50;;;10.70;99.90;;;;;;5006802;28;20030;-72
2021/05/15 03:58:11;;;;;;;12.32;7.07;;;10.70;99.90;;;;;;4999281;28;20034;-72
2021/05/15 04:00:37;;;;;;;11.50;7.50;;;10.70;99.90;;;;;;5002789;28;20025;-71
2021/05/15 04:03:04;;;;;;;13.07;7.10;;;10.70;99.90;;;;;;5005540;28;20105;-72
2021/05/15 04:05:29;;;;;;;12.55;7.68;;;10.70;99.90;;;;;;5000787;28;20141;-71
2021/05/15 04:07:55;;;;;;;12.65;6.80;;;10.70;99.90;;;;;;5004633;28;20500;-71
2021/05/15 04:10:22;;;;;;;12.30;8.20;;;10.70;99.90;;;;;;5002602;28;20807;-71
2021/05/15 04:12:53;;;;;;;12.75;8.02;;;10.70;99.90;;;;;;5005329;28;20108;-71
2021/05/15 04:15:35;;;;;;;13.85;7.75;;;10.60;99.90;;;;;;5005824;28;20101;-72
2021/05/15 04:18:09;;;;;;;11.55;7.13;;;10.60;99.90;;;;;;5001708;28;20072;-71
2021/05/15 04:20:39;;;;;;;13.00;7.10;;;10.60;99.90;;;;;;5007767;28;20030;-72
2021/05/15 04:23:05;;;;;;;11.73;6.82;;;10.60;99.90;;;;;;5017783;28;20038;-72
2021/05/15 04:25:32;;;;;;;11.02;6.60;;;10.60;99.90;;;;;;5002035;28;20045;-71
2021/05/15 04:27:58;;;;;;;12.85;7.32;;;10.60;99.90;;;;;;5028440;28;20041;-71
2021/05/15 04:30:34;;;;;;;13.23;7.78;;;10.60;99.90;;;;;;5017610;28;20489;-71
2021/05/15 04:33:03;;;;;;;14.05;7.55;;;10.70;99.90;;;;;;5016826;28;20108;-73
2021/05/15 04:35:32;;;;;;;12.77;7.63;;;10.70;99.90;;;;;;5004243;28;20057;-71
2021/05/15 04:38:02;;;;;;;11.75;7.28;;;10.70;99.90;;;;;;5005531;28;20030;-72
2021/05/15 04:40:29;;;;;;;13.05;7.93;;;10.70;99.90;;;;;;4999811;28;20077;-71
2021/05/15 04:42:58;;;;;;;12.10;7.75;;;10.80;99.90;;;;;;4985127;28;20049;-71
2021/05/15 04:45:27;;;;;;;12.07;7.45;;;10.80;99.90;;;;;;5006036;28;20041;-71
2021/05/15 04:47:53;;;;;;;13.70;7.65;;;10.80;99.90;;;;;;5007553;28;20030;-71
2021/05/15 04:50:19;;;;;;;14.48;8.07;;;10.80;99.90;;;;;;4997351;28;20441;-71
2021/05/15 04:52:44;;;;;;;16.75;8.63;;;10.80;99.90;;;;;;4999317;28;20077;-71
2021/05/15 04:55:10;;;;;;;14.98;8.68;;;10.80;99.90;;;;;;5004257;28;20046;-71
2021/05/15 04:57:36;;;;;;;13.77;8.40;;;10.80;99.90;;;;;;5009497;28;20160;-72
2021/05/15 05:00:04;;;;;;;13.43;7.88;;;10.90;99.90;;;;;;5006986;28;20072;-71
2021/05/15 05:02:29;;;;;;;13.40;7.43;;;10.90;99.90;;;;;;5010678;28;20162;-71
2021/05/15 05:04:55;;;;;;;14.55;8.77;;;10.90;99.90;;;;;;5007174;28;20576;-71
2021/05/15 05:07:21;;;;;;;13.25;7.95;;;10.90;99.90;;;;;;5003921;28;20108;-72
2021/05/15 05:09:46;;;;;;;15.10;9.23;;;10.90;99.90;;;;;;5007775;28;20156;-71
2021/05/15 05:12:12;;;;;;;14.48;8.52;;;10.90;99.90;;;;;;5008042;28;20377;-72
2021/05/15 05:14:39;;;;;;;17.60;9.90;;;10.90;99.90;;;;;;5004141;28;20502;-72
2021/05/15 05:17:05;;;;;;;14.80;8.82;;;11.00;99.90;;;;;;5000311;28;20342;-72
2021/05/15 05:19:32;;;;;;;16.20;8.15;;;11.00;99.90;;;;;;5004109;28;20065;-72
2021/05/15 05:22:01;;;;;;;14.05;7.97;;;11.00;99.90;;;;;;5000534;28;20104;-71
2021/05/15 05:24:27;;;;;;;14.93;8.30;;;11.00;99.90;;;;;;5020677;28;20541;-72
2021/05/15 05:26:54;;;;;;;14.30;8.18;;;11.10;99.90;;;;;;5004327;28;20110;-71
2021/05/15 05:29:19;;;;;;;16.08;9.07;;;11.00;99.90;;;;;;5010219;28;20481;-72
2021/05/15 05:31:45;;;;;;;13.90;8.68;;;11.00;99.90;;;;;;5006963;28;20033;-72
2021/05/15 05:34:11;;;;;;;14.70;8.18;;;11.00;99.90;;;;;;5010049;28;20361;-72
2021/05/15 05:36:38;;;;;;;14.55;8.70;;;11.00;99.90;;;;;;5012233;28;20012;-71
2021/05/15 05:39:22;;;;;;;12.63;7.78;;;11.00;99.90;;;;;;5010913;28;20026;-72
2021/05/15 05:41:49;;;;;;;14.40;7.93;;;11.00;99.90;;;;;;5003388;28;20022;-71
2021/05/15 05:44:20;;;;;;;18.67;9.23;;;10.90;99.90;;;;;;5007040;28;20038;-72
2021/05/15 05:46:45;;;;;;;13.77;8.65;;;11.00;99.90;;;;;;5011036;28;20079;-71
2021/05/15 05:49:11;;;;;;;14.13;8.48;;;11.00;99.90;;;;;;5004595;28;20058;-71
2021/05/15 05:51:37;;;;;;;13.77;8.32;;;11.00;99.90;;;;;;5016065;28;20038;-72
2021/05/15 05:54:03;;;;;;;14.30;8.45;;;11.10;99.90;;;;;;5010747;28;20042;-72
2021/05/15 05:56:29;;;;;;;16.60;9.50;;;11.10;99.90;;;;;;5016124;28;20031;-72
2021/05/15 05:58:55;;;;;;;13.88;8.10;;;11.10;99.90;;;;;;5014824;28;20034;-72
2021/05/15 06:01:21;;;;;;;14.27;9.07;;;11.10;99.90;;;;;;5001399;28;20483;-71
2021/05/15 06:03:47;;;;;;;14.85;8.90;;;11.20;99.90;;;;;;5025689;28;20413;-72
2021/05/15 06:06:13;;;;;;;17.42;10.18;;;11.20;99.90;;;;;;5004339;28;20038;-71
2021/05/15 06:08:39;;;;;;;16.33;9.40;;;11.20;99.90;;;;;;5008053;28;20035;-71
2021/05/15 06:11:05;;;;;;;17.15;10.00;;;11.20;99.90;;;;;;5010869;28;20034;-71
2021/05/15 06:13:31;;;;;;;13.85;8.75;;;11.30;99.90;;;;;;4998368;28;20088;-72
2021/05/15 06:15:57;;;;;;;17.85;10.65;;;11.30;99.90;;;;;;5006298;28;20038;-72
2021/05/15 06:18:23;;;;;;;18.38;10.48;;;11.20;99.90;;;;;;5004298;28;20045;-72
2021/05/15 06:20:49;;;;;;;18.35;11.02;;;11.20;99.90;;;;;;5028822;28;20033;-72
2021/05/15 06:23:15;;;;;;;19.83;11.60;;;11.20;99.90;;;;;;5022091;28;20465;-72
2021/05/15 06:25:42;;;;;;;20.42;11.93;;;11.10;99.90;;;;;;4992367;28;20079;-72
2021/05/15 06:28:08;;;;;;;19.95;10.82;;;11.10;99.90;;;;;;4995835;28;20401;-71
2021/05/15 06:30:34;;;;;;;19.77;10.82;;;11.10;99.90;;;;;;4994766;28;20125;-71
2021/05/15 06:33:00;;;;;;;20.17;10.82;;;11.10;99.90;;;;;;4990586;28;20041;-72
2021/05/15 06:35:27;;;;;;;19.63;10.57;;;11.00;99.90;;;;;;5026168;28;20026;-72
2021/05/15 06:37:52;;;;;;;19.13;10.85;;;11.00;99.90;;;;;;4999073;28;20022;-72
2021/05/15 06:40:18;;;;;;;18.38;11.23;;;11.00;99.90;;;;;;4997879;28;20666;-69
2021/05/15 06:42:44;;;;;;;17.30;10.60;;;11.00;99.90;;;;;;5004520;28;20129;-69
2021/05/15 06:45:10;;;;;;;20.92;12.25;;;11.00;99.90;;;;;;4991631;28;20116;-69
2021/05/15 06:47:37;;;;;;;21.52;12.70;;;11.00;99.90;;;;;;4989379;28;20022;-69
2021/05/15 06:50:05;;;;;;;20.77;12.77;;;11.00;99.90;;;;;;4990413;28;20054;-69
2021/05/15 06:52:31;;;;;;;22.75;12.30;;;11.10;99.90;;;;;;4991157;28;20038;-69
2021/05/15 06:54:56;;;;;;;21.00;12.85;;;11.10;99.90;;;;;;4991799;28;20029;-69
2021/05/15 06:57:22;;;;;;;21.23;12.52;;;11.10;99.90;;;;;;4989998;28;20030;-69
2021/05/15 06:59:48;;;;;;;28.45;14.00;;;11.10;99.90;;;;;;4987839;28;20069;-69
2021/05/15 07:02:14;;;;;;;26.60;14.57;;;11.10;99.90;;;;;;4988823;28;20513;-69
2021/05/15 07:04:39;;;;;;;20.25;12.68;;;11.10;99.90;;;;;;4993210;28;20109;-69
2021/05/15 07:07:05;;;;;;;22.33;13.70;;;11.00;99.90;;;;;;4991642;28;20030;-69
2021/05/15 07:09:31;;;;;;;27.33;14.85;;;11.00;99.90;;;;;;4991420;28;20034;-69
2021/05/15 07:11:57;;;;;;;25.23;13.48;;;11.00;99.90;;;;;;4990303;28;20034;-69
2021/05/15 07:14:23;;;;;;;23.73;13.25;;;11.10;99.90;;;;;;4988097;28;20105;-69
2021/05/15 07:16:48;;;;;;;24.92;13.55;;;11.10;99.90;;;;;;4989928;28;20054;-69
2021/05/15 07:19:15;;;;;;;23.30;13.95;;;11.10;99.90;;;;;;4988601;28;20034;-70
2021/05/15 07:21:41;;;;;;;22.42;13.20;;;11.10;99.90;;;;;;4989108;28;20068;-69
2021/05/15 07:24:07;;;;;;;23.40;12.88;;;11.10;99.90;;;;;;4986696;28;20494;-69
2021/05/15 07:26:33;;;;;;;24.83;15.02;;;11.00;99.90;;;;;;4989055;28;20034;-69
2021/05/15 07:28:59;;;;;;;26.38;14.35;;;11.00;99.90;;;;;;5002775;28;20470;-69
2021/05/15 07:31:25;;;;;;;25.45;13.45;;;11.00;99.90;;;;;;5017953;28;20072;-69
2021/05/15 07:33:51;;;;;;;24.67;15.02;;;11.00;99.90;;;;;;4985548;28;20101;-69
2021/05/15 07:36:17;;;;;;;22.60;12.98;;;11.00;99.90;;;;;;5021315;28;20030;-69
2021/05/15 07:38:44;;;;;;;24.85;13.27;;;11.00;99.90;;;;;;4987901;28;20026;-69
2021/05/15 07:41:10;;;;;;;24.67;13.77;;;11.00;99.90;;;;;;5019043;28;20045;-69
2021/05/15 07:43:36;;;;;;;25.27;13.13;;;11.10;99.90;;;;;;4987065;28;20026;-69
2021/05/15 07:46:02;;;;;;;23.45;12.93;;;11.10;99.90;;;;;;4984800;28;20034;-69
2021/05/15 07:48:29;;;;;;;23.50;13.65;;;11.20;99.90;;;;;;4988296;28;20072;-69
2021/05/15 07:50:58;;;;;;;23.77;13.38;;;11.20;99.90;;;;;;4985412;28;20038;-69
2021/05/15 07:53:26;;;;;;;25.60;13.75;;;11.20;99.90;;;;;;4984757;28;20069;-69
2021/05/15 07:55:52;;;;;;;27.85;14.90;;;11.30;99.90;;;;;;4987977;28;20168;-69
2021/05/15 07:58:18;;;;;;;27.73;14.90;;;11.30;99.90;;;;;;4984315;28;20060;-69
2021/05/15 08:00:44;;;;;;;24.65;14.20;;;11.40;99.90;;;;;;4984311;28;20228;-69
2021/05/15 08:03:10;;;;;;;25.25;13.63;;;11.50;99.90;;;;;;4982651;28;20040;-69
2021/05/15 08:05:36;;;;;;;22.42;12.45;;;11.50;99.90;;;;;;4986778;28;20034;-69
2021/05/15 08:08:02;;;;;;;15.52;9.98;;;11.60;99.90;;;;;;4987028;28;20022;-69
2021/05/15 08:10:30;;;;;;;22.50;12.45;;;11.80;99.90;;;;;;4988672;28;20094;-68
2021/05/15 08:12:57;;;;;;;22.92;13.20;;;12.00;99.90;;;;;;4982702;28;20030;-69
2021/05/15 08:15:23;;;;;;;22.88;13.05;;;12.10;99.90;;;;;;4986561;28;20135;-69
2021/05/15 08:17:49;;;;;;;27.10;12.93;;;12.20;99.90;;;;;;4985204;28;20034;-69
2021/05/15 08:20:15;;;;;;;23.50;14.45;;;12.30;99.90;;;;;;4985664;28;20537;-69
2021/05/15 08:22:41;;;;;;;21.65;13.52;;;12.40;99.90;;;;;;4986749;28;20125;-69
2021/05/15 08:25:09;;;;;;;22.60;13.07;;;12.50;99.90;;;;;;4985473;28;20493;-69
2021/05/15 08:27:38;;;;;;;;;;;12.50;99.90;;;;;;4983381;28;20692;-69
2021/05/15 08:30:05;;;;;;;23.63;13.93;;;12.40;99.90;;;;;;4985182;28;19929;-69
2021/05/15 08:32:31;;;;;;;20.88;13.63;;;12.40;99.90;;;;;;4984313;28;20113;-69
2021/05/15 08:34:56;;;;;;;21.27;12.88;;;12.50;99.90;;;;;;4983638;28;20200;-69
2021/05/15 08:37:22;;;;;;;24.13;13.63;;;12.60;99.90;;;;;;4984236;28;20042;-69
2021/05/15 08:39:48;;;;;;;28.10;15.35;;;12.80;99.90;;;;;;4984766;28;20118;-69
2021/05/15 08:42:17;;;;;;;19.55;12.85;;;12.80;99.90;;;;;;4983749;28;20034;-69
2021/05/15 08:44:46;;;;;;;26.33;15.98;;;12.80;99.90;;;;;;4999184;28;20045;-68
2021/05/15 08:47:15;;;;;;;24.60;13.48;;;12.70;99.90;;;;;;4984766;28;20475;-69
2021/05/15 08:49:41;;;;;;;26.77;14.30;;;12.70;99.90;;;;;;4985788;28;20082;-69
2021/05/15 08:52:08;;;;;;;27.52;16.10;;;12.70;99.90;;;;;;4983677;28;20061;-69
2021/05/15 08:54:34;;;;;;;20.50;12.20;;;12.50;99.90;;;;;;4986480;28;20045;-69
2021/05/15 08:57:00;;;;;;;24.33;15.23;;;12.50;99.90;;;;;;4984147;28;20061;-69
2021/05/15 08:59:26;;;;;;;25.42;15.13;;;12.50;99.90;;;;;;5017784;28;20465;-69
2021/05/15 09:01:53;;;;;;;25.05;13.90;;;12.60;99.90;;;;;;4998360;28;20512;-69
2021/05/15 09:04:21;;;;;;;22.80;14.68;;;12.60;99.90;;;;;;4985654;28;20486;-69
2021/05/15 09:06:49;;;;;;;23.15;15.00;;;12.60;99.90;;;;;;4982031;28;20133;-69
2021/05/15 09:09:16;;;;;;;;;;;12.50;99.90;;;;;;4984612;28;20132;-70
2021/05/15 09:11:43;;;;;;;25.60;14.05;;;12.50;99.90;;;;;;4983799;28;20385;-69
2021/05/15 09:14:18;;;;;;;24.70;14.88;;;12.60;99.90;;;;;;4985626;28;20430;-69
2021/05/15 09:16:50;;;;;;;23.17;14.10;;;12.60;99.90;;;;;;5002322;28;20045;-69
2021/05/15 09:19:25;;;;;;;21.23;12.40;;;12.60;99.90;;;;;;4986244;28;20043;-69
2021/05/15 09:21:58;;;;;;;23.67;13.15;;;12.80;99.90;;;;;;5014925;28;20042;-69
2021/05/15 09:24:31;;;;;;;26.02;14.45;;;12.90;99.90;;;;;;4988116;28;24643;-69
2021/05/15 09:27:01;;;;;;;22.85;12.50;;;13.00;99.90;;;;;;4986760;28;20048;-69
2021/05/15 09:29:43;;;;;;;22.67;13.57;;;13.10;99.90;;;;;;4985273;28;20089;-69
2021/05/15 09:32:12;;;;;;;20.23;13.10;;;13.20;99.90;;;;;;4998177;28;20055;-69
2021/05/15 09:34:49;;;;;;;27.30;15.02;;;13.30;99.90;;;;;;4998682;28;20042;-68
2021/05/15 09:37:32;;;;;;;21.77;14.10;;;13.40;99.90;;;;;;5001935;28;20050;-68
2021/05/15 09:40:20;;;;;;;22.08;14.13;;;13.50;99.90;;;;;;4988835;28;20046;-69
2021/05/15 09:43:07;;;;;;;21.05;13.25;;;13.60;99.90;;;;;;4982816;28;20053;-69
2021/05/15 09:45:37;;;;;;;19.42;11.57;;;13.60;99.90;;;;;;4987993;28;20046;-69
2021/05/15 09:48:09;;;;;;;19.45;12.52;;;13.60;99.90;;;;;;4987722;28;20074;-69
2021/05/15 09:50:39;;;;;;;19.80;12.55;;;13.60;99.90;;;;;;4991111;28;20470;-69
2021/05/15 09:53:10;;;;;;;24.13;13.75;;;13.60;99.90;;;;;;5018791;28;20085;-69
2021/05/15 09:55:41;;;;;;;22.08;12.38;;;13.70;99.90;;;;;;4991339;28;20358;-69
2021/05/15 09:58:09;;;;;;;22.35;12.65;;;13.80;99.90;;;;;;5004910;28;20046;-69
2021/05/15 10:00:55;;;;;;;27.50;15.27;;;13.80;99.90;;;;;;4990121;28;20049;-69
2021/05/15 10:03:24;;;;;;;21.55;13.43;;;13.80;99.90;;;;;;5002180;28;20549;-69
2021/05/15 10:06:15;;;;;;;24.42;13.75;;;13.70;99.90;;;;;;5019343;28;20057;-69
2021/05/15 10:08:43;;;;;;;20.48;12.80;;;13.70;99.90;;;;;;4989431;28;20453;-69
2021/05/15 10:11:10;;;;;;;24.60;13.98;;;13.60;99.90;;;;;;4990856;28;20069;-69
2021/05/15 10:13:40;;;;;;;23.70;14.07;;;13.60;99.90;;;;;;5000798;28;20101;-69
2021/05/15 10:16:07;;;;;;;21.67;13.45;;;13.50;99.90;;;;;;4987316;28;20057;-69
2021/05/15 10:18:37;;;;;;;26.25;16.20;;;13.50;99.90;;;;;;4988117;28;20488;-69
2021/05/15 10:21:05;;;;;;;23.65;15.75;;;13.50;99.90;;;;;;4987808;28;20483;-69
2021/05/15 10:23:36;;;;;;;26.83;16.17;;;13.50;99.90;;;;;;4987661;28;20133;-69
2021/05/15 10:26:10;;;;;;;25.35;16.35;;;13.60;99.90;;;;;;5002653;28;20054;-69
2021/05/15 10:28:38;;;;;;;24.13;16.65;;;13.80;99.90;;;;;;4988314;28;20042;-69
2021/05/15 10:31:18;;;;;;;26.48;18.02;;;13.90;99.90;;;;;;4986539;28;20100;-69
2021/05/15 10:33:47;;;;;;;26.85;16.95;;;14.10;99.90;;;;;;5019018;28;20313;-69
2021/05/15 10:36:24;;;;;;;28.30;18.23;;;14.20;99.90;;;;;;5020592;28;20054;-69
2021/05/15 10:38:52;;;;;;;30.63;20.10;;;14.30;99.90;;;;;;4986149;28;20049;-69
2021/05/15 10:41:26;;;;;;;31.27;19.83;;;14.50;99.90;;;;;;5018664;28;20515;-69
2021/05/15 10:43:56;;;;;;;27.02;18.05;;;14.50;99.90;;;;;;4985789;28;20053;-69
2021/05/15 10:46:27;;;;;;;25.38;17.70;;;14.50;99.90;;;;;;4988407;28;20058;-69
2021/05/15 10:49:09;;;;;;;25.88;17.92;;;14.50;99.90;;;;;;4986452;28;20051;-69
2021/05/15 10:52:03;;;;;;;25.73;18.05;;;14.40;99.90;;;;;;4987646;28;20050;-69
2021/05/15 10:54:35;;;;;;;23.70;16.08;;;14.30;99.90;;;;;;4991978;28;20648;-69
2021/05/15 10:57:05;;;;;;;26.90;17.70;;;14.40;99.90;;;;;;5002465;28;20357;-69
2021/05/15 10:59:32;;;;;;;26.92;18.35;;;14.50;99.90;;;;;;4983965;28;20047;-69
2021/05/15 11:02:01;;;;;;;27.23;18.15;;;14.60;99.90;;;;;;5000321;28;20061;-69
2021/05/15 11:04:35;;;;;;;25.33;17.10;;;14.80;99.90;;;;;;4985165;28;20058;-69
2021/05/15 11:07:47;;;;;;;22.40;16.38;;;15.00;99.90;;;;;;4984013;28;20089;-69
2021/05/15 11:10:18;;;;;;;24.70;15.95;;;15.20;99.90;;;;;;4986756;28;20054;-69
2021/05/15 11:12:47;;;;;;;21.92;15.93;;;15.40;99.90;;;;;;5000853;28;20050;-69
2021/05/15 11:15:17;;;;;;;22.73;15.80;;;15.60;99.90;;;;;;4984441;28;20479;-69
2021/05/15 11:17:45;;;;;;;24.55;15.27;;;15.70;99.90;;;;;;4985674;28;20482;-69
2021/05/15 11:20:15;;;;;;;21.65;16.55;;;15.90;99.90;;;;;;4984410;28;20395;-69
2021/05/15 11:22:53;;;;;;;26.80;19.30;;;15.80;99.90;;;;;;4986378;28;20050;-69
2021/05/15 11:25:28;;;;;;;27.58;18.75;;;15.60;99.90;;;;;;4985660;28;20493;-69
2021/05/15 11:28:03;;;;;;;27.55;18.80;;;15.50;99.90;;;;;;4986925;28;20855;-69
2021/05/15 11:30:31;;;;;;;26.60;17.85;;;15.40;99.90;;;;;;4986578;28;20050;-69
2021/05/15 11:33:03;;;;;;;26.00;17.23;;;15.30;99.90;;;;;;5002823;28;20050;-69
2021/05/15 11:35:38;;;;;;;26.08;16.63;;;15.30;99.90;;;;;;4986889;28;20379;-69
2021/05/15 11:38:06;;;;;;;21.33;16.05;;;15.30;99.90;;;;;;4986205;28;20046;-69
2021/05/15 11:40:37;;;;;;;23.40;15.85;;;15.10;99.90;;;;;;4987090;28;20137;-69
2021/05/15 11:43:05;;;;;;;27.00;16.45;;;15.00;99.90;;;;;;4986841;28;20113;-69
2021/05/15 11:45:33;;;;;;;26.50;16.73;;;14.80;99.90;;;;;;4986207;28;20080;-69
2021/05/15 11:48:04;;;;;;;;;;;14.70;99.90;;;;;;5019332;28;20050;-69
2021/05/15 11:50:31;;;;;;;23.27;16.17;;;14.60;99.90;;;;;;4986666;28;20023;-69
2021/05/15 11:53:03;;;;;;;22.75;15.73;;;14.50;99.90;;;;;;4984406;28;20054;-69
2021/05/15 11:55:31;;;;;;;23.60;15.68;;;14.40;99.90;;;;;;4984375;28;20080;-69
2021/05/15 11:58:04;;;;;;;22.55;15.30;;;14.40;99.90;;;;;;4985340;28;20042;-69
2021/05/15 12:00:32;;;;;;;20.77;14.52;;;14.30;99.90;;;;;;4990010;28;20681;-68
2021/05/15 12:03:02;;;;;;;30.58;17.98;;;14.30;99.90;;;;;;4989870;28;20046;-69
2021/05/15 12:05:29;;;;;;;28.33;18.35;;;14.10;99.90;;;;;;4988364;28;20077;-70
2021/05/15 12:08:01;;;;;;;27.73;16.97;;;13.90;99.90;;;;;;5022399;28;20054;-69
2021/05/15 12:10:28;;;;;;;23.60;15.25;;;13.80;99.90;;;;;;4986648;28;20104;-69
2021/05/15 12:13:02;;;;;;;24.00;15.18;;;13.70;99.90;;;;;;4985807;28;20552;-69
2021/05/15 12:15:30;;;;;;;26.38;16.13;;;13.70;99.90;;;;;;4986965;28;20108;-69
2021/05/15 12:18:00;;;;;;;25.15;15.85;;;13.70;99.90;;;;;;5019887;28;20133;-70
2021/05/15 12:20:47;;;;;;;27.42;16.25;;;13.80;99.90;;;;;;5016985;28;20138;-69
2021/05/15 12:23:23;;;;;;;25.48;15.57;;;14.00;99.90;;;;;;4987545;28;20065;-70
2021/05/15 12:26:01;;;;;;;22.35;13.55;;;14.10;99.90;;;;;;4986716;28;20066;-69
2021/05/15 12:28:30;;;;;;;24.40;16.73;;;14.30;99.90;;;;;;4988978;28;20054;-69
2021/05/15 12:30:59;;;;;;;24.00;15.63;;;14.40;99.90;;;;;;4987488;28;20313;-69
2021/05/15 12:33:27;;;;;;;26.05;14.65;;;14.50;99.90;;;;;;4985423;28;20050;-69
2021/05/15 12:36:01;;;;;;;25.73;15.40;;;14.60;99.90;;;;;;4988768;28;20470;-69
2021/05/15 12:38:30;;;;;;;27.33;14.88;;;14.70;99.90;;;;;;4985213;28;20065;-69